createdAt,value
2022-12-23T00:00:27.843Z,99992.34
2022-12-23T00:02:54.540Z,100038.91
2022-12-23T00:05:21.376Z,100045.59
2022-12-23T00:07:48.074Z,100035.75
2022-12-23T00:10:14.654Z,100010.81
2022-12-23T00:12:59.707Z,100024.78
2022-12-23T00:15:26.236Z,100031.00
2022-12-23T00:17:52.834Z,100035.13
2022-12-23T00:20:19.396Z,99973.72
2022-12-23T00:23:04.451Z,100025.25
2022-12-23T00:25:41.209Z,100031.09
2022-12-23T00:28:12.578Z,100027.19
2022-12-23T00:30:49.348Z,100035.97
2022-12-23T00:33:18.903Z,100026.09
2022-12-23T00:35:46.240Z,100027.94
2022-12-23T00:38:13.562Z,100050.06
2022-12-23T00:40:58.739Z,100012.22
2022-12-23T00:43:25.291Z,100035.94
2022-12-23T00:45:51.825Z,100041.75
2022-12-23T00:48:36.806Z,99997.78
2022-12-23T00:51:03.407Z,100008.22
2022-12-23T00:53:30.132Z,100049.44
2022-12-23T00:55:56.697Z,99992.19
2022-12-23T00:58:23.315Z,100005.44
2022-12-23T01:01:08.700Z,100046.66
2022-12-23T01:03:53.815Z,100037.16
2022-12-23T01:06:20.516Z,100042.63
2022-12-23T01:08:47.010Z,100041.28
2022-12-23T01:11:13.544Z,99985.25
2022-12-23T01:13:40.198Z,100033.16
2022-12-23T01:16:15.352Z,100027.31
2022-12-23T01:18:43.941Z,99971.38
2022-12-23T01:21:10.995Z,99961.56
2022-12-23T01:23:38.068Z,100020.38
2022-12-23T01:26:06.856Z,100005.44
2022-12-23T01:28:34.377Z,100025.59
2022-12-23T01:31:02.925Z,100026.31
2022-12-23T01:33:31.112Z,100027.44
2022-12-23T01:36:08.492Z,99884.03
2022-12-23T01:38:35.434Z,100030.63
2022-12-23T01:41:01.918Z,100021.09
2022-12-23T01:43:49.577Z,100025.59
2022-12-23T01:46:16.499Z,100021.09
2022-12-23T01:48:51.907Z,99983.53
2022-12-23T01:51:29.211Z,100024.00
2022-12-23T01:54:01.311Z,100011.84
2022-12-23T01:56:36.985Z,100003.34
2022-12-23T01:59:11.492Z,100024.50
2022-12-23T02:01:56.550Z,100029.75
2022-12-23T02:04:26.134Z,99999.31
2022-12-23T02:07:11.656Z,100024.00
2022-12-23T02:09:41.011Z,100004.00
2022-12-23T02:12:18.164Z,100020.88
2022-12-23T02:15:06.038Z,100062.38
2022-12-23T02:18:09.987Z,100000.78
2022-12-23T02:21:04.164Z,100004.06
2022-12-23T02:23:45.621Z,99998.25
2022-12-23T02:26:15.063Z,99995.91
2022-12-23T02:29:04.724Z,99985.47
2022-12-23T02:32:05.533Z,99983.50
2022-12-23T02:35:07.876Z,99991.88
2022-12-23T02:37:50.887Z,99974.97
2022-12-23T02:40:34.065Z,99999.06
2022-12-23T02:43:00.533Z,100006.00
2022-12-23T02:45:43.170Z,99987.06
2022-12-23T02:48:31.753Z,100018.53
2022-12-23T02:51:00.323Z,100016.47
2022-12-23T02:53:32.266Z,100005.06
2022-12-23T02:56:00.991Z,99972.13
2022-12-23T02:58:32.702Z,100029.63
2022-12-23T03:01:02.008Z,100018.91
2022-12-23T03:03:29.268Z,99997.66
2022-12-23T03:05:56.680Z,100032.78
2022-12-23T03:08:31.754Z,100011.16
2022-12-23T03:11:04.305Z,100029.41
2022-12-23T03:13:41.299Z,100008.97
2022-12-23T03:16:23.658Z,99991.25
2022-12-23T03:19:25.623Z,100032.44
2022-12-23T03:22:14.450Z,100038.91
2022-12-23T03:24:50.067Z,100039.50
2022-12-23T03:27:22.782Z,100015.78
2022-12-23T03:29:58.220Z,100049.88
2022-12-23T03:32:28.312Z,100055.81
2022-12-23T03:34:59.094Z,100033.06
2022-12-23T03:37:28.776Z,100048.38
2022-12-23T03:40:08.767Z,100054.38
2022-12-23T03:42:39.818Z,100056.78
2022-12-23T03:45:38.135Z,100029.78
2022-12-23T03:48:09.779Z,100049.25
2022-12-23T03:50:39.902Z,100051.28
2022-12-23T03:53:24.555Z,100042.03
2022-12-23T03:56:02.854Z,100065.41
2022-12-23T03:58:32.108Z,100052.84
2022-12-23T04:01:10.026Z,100052.22
2022-12-23T04:03:44.873Z,100055.28
2022-12-23T04:06:15.913Z,100049.66
2022-12-23T04:08:44.865Z,100058.41
2022-12-23T04:11:12.243Z,100055.47
2022-12-23T04:13:38.820Z,100019.50
2022-12-23T04:16:06.333Z,100065.47
2022-12-23T04:18:33.112Z,100058.91
2022-12-23T04:20:59.784Z,100059.16
2022-12-23T04:23:26.284Z,100064.97
2022-12-23T04:25:52.810Z,100069.50
2022-12-23T04:28:20.185Z,100044.81
2022-12-23T04:30:46.808Z,100043.81
2022-12-23T04:33:13.582Z,100032.88
2022-12-23T04:35:40.262Z,100028.75
2022-12-23T04:38:07.566Z,100059.28
2022-12-23T04:40:34.068Z,100027.06
2022-12-23T04:43:00.566Z,100080.72
2022-12-23T04:45:27.174Z,100020.00
2022-12-23T04:47:55.295Z,100020.44
2022-12-23T04:50:21.880Z,100018.47
2022-12-23T04:52:48.330Z,99993.53
2022-12-23T04:55:14.878Z,100016.44
2022-12-23T04:57:41.494Z,100011.66
2022-12-23T05:00:08.900Z,99983.00
2022-12-23T05:02:35.564Z,100006.41
2022-12-23T05:05:02.296Z,99997.38
2022-12-23T05:07:28.778Z,99956.91
2022-12-23T05:09:55.253Z,100039.56
2022-12-23T05:12:21.710Z,100021.78
2022-12-23T05:14:48.210Z,99908.44
2022-12-23T05:17:14.669Z,100056.56
2022-12-23T05:19:41.158Z,100036.81
2022-12-23T05:22:07.627Z,100041.38
2022-12-23T05:24:34.090Z,100031.78
2022-12-23T05:27:00.824Z,100051.97
2022-12-23T05:29:27.898Z,100055.00
2022-12-23T05:31:54.489Z,100074.09
2022-12-23T05:34:21.288Z,100059.63
2022-12-23T05:36:47.868Z,100079.69
2022-12-23T05:39:14.423Z,100074.09
2022-12-23T05:41:40.936Z,100049.28
2022-12-23T05:44:07.736Z,100086.66
2022-12-23T05:46:34.495Z,100088.97
2022-12-23T05:49:01.023Z,100085.31
2022-12-23T05:51:27.555Z,100092.59
2022-12-23T05:53:53.995Z,100090.94
2022-12-23T05:56:20.507Z,100101.91
2022-12-23T05:58:47.026Z,100080.50
2022-12-23T06:01:14.339Z,100096.06
2022-12-23T06:03:40.906Z,100098.63
2022-12-23T06:06:07.558Z,100089.00
2022-12-23T06:08:34.206Z,100117.09
2022-12-23T06:11:00.709Z,100085.59
2022-12-23T06:13:27.163Z,100114.44
2022-12-23T06:15:53.657Z,100120.28
2022-12-23T06:18:20.131Z,100120.91
2022-12-23T06:20:47.742Z,100123.94
2022-12-23T06:23:14.596Z,100115.91
2022-12-23T06:25:41.208Z,100123.94
2022-12-23T06:28:08.069Z,100137.72
2022-12-23T06:30:34.911Z,100132.94
2022-12-23T06:33:01.389Z,100131.38
2022-12-23T06:35:27.933Z,100107.03
2022-12-23T06:37:54.432Z,100102.66
2022-12-23T06:40:20.947Z,100136.97
2022-12-23T06:42:47.561Z,100137.09
2022-12-23T06:45:14.116Z,100134.31
2022-12-23T06:47:40.639Z,100122.84
2022-12-23T06:50:07.650Z,100136.59
2022-12-23T06:52:34.203Z,100141.06
2022-12-23T06:55:00.663Z,100140.13
2022-12-23T06:57:27.140Z,100146.56
2022-12-23T06:59:53.584Z,100149.63
2022-12-23T07:02:20.785Z,100148.28
2022-12-23T07:04:47.408Z,100114.94
2022-12-23T07:07:13.996Z,100140.75
2022-12-23T07:09:40.424Z,100148.28
2022-12-23T07:12:07.027Z,100124.81
2022-12-23T07:14:33.500Z,100158.16
2022-12-23T07:16:59.951Z,100158.78
2022-12-23T07:19:26.511Z,100121.78
2022-12-23T07:21:53.098Z,100180.56
2022-12-23T07:24:19.756Z,100178.00
2022-12-23T07:26:46.255Z,100175.09
2022-12-23T07:29:12.737Z,100175.66
2022-12-23T07:31:41.094Z,100184.44
2022-12-23T07:34:08.159Z,100167.28
2022-12-23T07:36:34.646Z,100092.44
2022-12-23T07:39:01.153Z,100154.63
2022-12-23T07:41:27.592Z,100207.22
2022-12-23T07:43:54.789Z,100223.41
2022-12-23T07:46:21.393Z,100222.19
2022-12-23T07:48:47.970Z,100222.06
2022-12-23T07:51:14.631Z,100206.97
2022-12-23T07:53:41.141Z,100221.22
2022-12-23T07:56:08.064Z,100221.09
2022-12-23T07:58:34.650Z,100233.41
2022-12-23T08:01:08.089Z,100211.00
2022-12-23T08:03:34.981Z,100194.66
2022-12-23T08:06:03.527Z,100196.72
2022-12-23T08:08:30.605Z,100139.63
2022-12-23T08:11:03.294Z,100169.72
2022-12-23T08:13:31.894Z,100208.69
2022-12-23T08:16:00.743Z,100220.00
2022-12-23T08:18:29.651Z,100225.00
2022-12-23T08:21:01.614Z,100221.59
2022-12-23T08:23:29.552Z,100228.75
2022-12-23T08:25:59.967Z,100223.06
2022-12-23T08:28:26.473Z,100235.47
2022-12-23T08:30:53.635Z,100208.06
2022-12-23T08:33:20.095Z,100189.09
2022-12-23T08:35:46.711Z,100203.44
2022-12-23T08:38:13.252Z,100256.78
2022-12-23T08:40:40.920Z,100245.06
2022-12-23T08:43:07.964Z,100195.75
2022-12-23T08:45:38.615Z,100226.22
2022-12-23T08:48:06.766Z,100253.84
2022-12-23T08:50:44.033Z,100249.72
2022-12-23T08:53:11.727Z,100252.91
2022-12-23T08:55:43.180Z,100260.91
2022-12-23T08:58:10.916Z,100269.56
2022-12-23T09:00:39.280Z,100272.50
2022-12-23T09:03:06.855Z,100285.38
2022-12-23T09:05:34.611Z,100292.44
2022-12-23T09:08:02.051Z,100246.16
2022-12-23T09:10:28.614Z,100293.56
2022-12-23T09:12:57.808Z,100299.66
2022-12-23T09:15:25.170Z,100189.84
2022-12-23T09:17:51.675Z,100275.00
2022-12-23T09:20:18.160Z,100241.53
2022-12-23T09:22:44.658Z,100283.81
2022-12-23T09:25:11.210Z,100292.34
2022-12-23T09:27:38.025Z,100301.78
2022-12-23T09:30:05.078Z,100249.78
2022-12-23T09:32:32.561Z,100284.38
2022-12-23T09:34:59.097Z,100239.13
2022-12-23T09:37:25.603Z,100291.00
2022-12-23T09:39:52.082Z,100292.25
2022-12-23T09:42:43.467Z,100299.53
2022-12-23T09:45:45.213Z,100301.38
2022-12-23T09:48:15.838Z,100305.53
2022-12-23T09:50:43.587Z,100272.34
2022-12-23T09:53:18.361Z,100311.78
2022-12-23T09:55:55.156Z,100315.72
2022-12-23T09:58:30.312Z,100312.56
2022-12-23T10:01:18.893Z,100243.84
2022-12-23T10:04:23.734Z,100295.00
2022-12-23T10:07:06.667Z,100293.94
2022-12-23T10:09:37.658Z,100290.41
2022-12-23T10:12:39.811Z,100294.69
2022-12-23T10:15:19.141Z,100280.81
2022-12-23T10:17:46.931Z,100270.53
2022-12-23T10:20:19.553Z,100286.97
2022-12-23T10:22:47.321Z,100298.53
2022-12-23T10:25:37.394Z,100309.13
2022-12-23T10:28:04.903Z,100306.25
2022-12-23T10:31:23.347Z,100304.19
2022-12-23T10:33:41.463Z,100229.72
2022-12-23T10:36:28.411Z,100307.34
2022-12-23T10:39:16.840Z,100312.19
2022-12-23T10:42:00.384Z,100311.59
2022-12-23T10:44:41.127Z,100308.56
2022-12-23T10:47:35.438Z,100260.69
2022-12-23T10:50:34.686Z,100289.66
2022-12-23T10:53:05.283Z,100294.91
2022-12-23T10:55:38.422Z,100300.16
2022-12-23T10:58:14.735Z,100299.78
2022-12-23T11:00:45.646Z,100300.28
2022-12-23T11:03:20.888Z,100293.81
2022-12-23T11:05:50.987Z,100299.91
2022-12-23T11:08:18.410Z,100303.28
2022-12-23T11:10:45.073Z,100301.50
2022-12-23T11:13:24.294Z,100303.47
2022-12-23T11:15:52.483Z,100312.47
2022-12-23T11:18:20.635Z,100312.97
2022-12-23T11:21:04.062Z,100242.28
2022-12-23T11:23:36.666Z,100311.00
2022-12-23T11:26:07.125Z,100317.19
2022-12-23T11:28:37.705Z,100300.88
2022-12-23T11:31:12.122Z,100301.72
2022-12-23T11:33:45.787Z,100264.19
2022-12-23T11:36:12.193Z,100316.75
2022-12-23T11:38:52.959Z,100296.75
2022-12-23T11:41:27.144Z,100293.56
2022-12-23T11:44:05.361Z,100268.47
2022-12-23T11:46:34.209Z,100276.53
2022-12-23T11:49:20.821Z,100296.38
2022-12-23T11:52:01.967Z,100296.00
2022-12-23T11:54:29.322Z,100299.31
2022-12-23T11:56:56.170Z,100284.78
2022-12-23T11:59:38.536Z,100289.78
2022-12-23T12:02:14.953Z,100264.72
2022-12-23T12:04:42.466Z,100245.97
2022-12-23T12:07:14.482Z,100300.28
2022-12-23T12:09:43.496Z,100289.31
2022-12-23T12:12:22.275Z,100272.13
2022-12-23T12:14:52.382Z,100252.38
2022-12-23T12:17:21.959Z,100286.63
2022-12-23T12:20:05.016Z,100284.69
2022-12-23T12:23:03.533Z,100271.16
2022-12-23T12:25:39.876Z,100254.78
2022-12-23T12:28:13.901Z,100257.91
2022-12-23T12:31:17.256Z,100261.41
2022-12-23T12:34:05.856Z,100253.13
2022-12-23T12:36:46.068Z,100244.69
2022-12-23T12:39:54.526Z,100245.28
2022-12-23T12:42:30.230Z,100244.50
2022-12-23T12:45:24.153Z,100227.00
2022-12-23T12:48:18.684Z,100245.03
2022-12-23T12:51:02.681Z,100241.22
2022-12-23T12:53:31.961Z,100244.25
2022-12-23T12:56:18.634Z,100200.88
2022-12-23T12:58:45.199Z,100199.16
2022-12-23T13:01:17.892Z,100250.84
2022-12-23T13:04:19.758Z,100220.22
2022-12-23T13:07:07.862Z,100251.88
2022-12-23T13:09:50.405Z,100219.00
2022-12-23T13:12:26.041Z,100246.06
2022-12-23T13:15:04.571Z,100249.41
2022-12-23T13:17:45.041Z,100270.53
2022-12-23T13:20:28.423Z,100264.31
2022-12-23T13:23:20.900Z,100151.00
2022-12-23T13:26:01.198Z,100223.19
2022-12-23T13:28:44.549Z,100258.84
2022-12-23T13:31:21.838Z,100251.66
2022-12-23T13:34:02.887Z,100212.50
2022-12-23T13:37:03.109Z,100234.81
2022-12-23T13:39:44.259Z,100201.28
2022-12-23T13:42:24.318Z,100232.06
2022-12-23T13:44:51.460Z,100239.56
2022-12-23T13:47:36.172Z,100247.09
2022-12-23T13:50:25.634Z,100241.28
2022-12-23T13:53:09.905Z,100240.66
2022-12-23T13:55:58.364Z,100241.28
2022-12-23T13:58:27.148Z,100245.28
2022-12-23T14:01:03.265Z,100225.44
2022-12-23T14:03:33.915Z,100239.56
2022-12-23T14:06:18.658Z,100243.13
2022-12-23T14:08:46.211Z,100235.06
2022-12-23T14:11:21.434Z,100237.38
2022-12-23T14:13:51.206Z,100233.47
2022-12-23T14:16:42.591Z,100236.59
2022-12-23T14:19:36.679Z,100234.50
2022-12-23T14:22:25.015Z,100223.78
2022-12-23T14:25:16.458Z,100221.28
2022-12-23T14:28:13.276Z,100224.41
2022-12-23T14:30:45.694Z,100205.63
2022-12-23T14:33:44.623Z,100209.78
2022-12-23T14:36:25.951Z,100195.28
2022-12-23T14:39:11.393Z,100200.63
2022-12-23T14:41:48.003Z,100146.47
2022-12-23T14:44:42.605Z,100194.22
2022-12-23T14:47:35.456Z,100203.75
2022-12-23T14:50:47.197Z,100207.63
2022-12-23T14:53:29.523Z,100161.66
2022-12-23T14:56:08.069Z,100205.09
2022-12-23T14:58:50.303Z,100176.13
2022-12-23T15:01:19.088Z,100141.09
2022-12-23T15:03:57.530Z,100216.94
2022-12-23T15:06:39.435Z,100214.72
2022-12-23T15:09:07.789Z,100210.47
2022-12-23T15:11:36.660Z,100223.41
2022-12-23T15:14:10.330Z,100226.81
2022-12-23T15:16:40.374Z,100100.59
2022-12-23T15:19:27.365Z,100217.31
2022-12-23T15:22:22.121Z,100226.81
2022-12-23T15:24:52.004Z,100188.34
2022-12-23T15:27:29.408Z,100222.53
2022-12-23T15:29:57.227Z,100208.91
2022-12-23T15:32:25.426Z,100152.81
2022-12-23T15:34:56.304Z,100222.69
2022-12-23T15:37:29.485Z,100206.84
2022-12-23T15:40:06.130Z,100223.19
2022-12-23T15:42:38.670Z,100192.13
2022-12-23T15:45:29.539Z,100218.31
2022-12-23T15:47:56.034Z,100187.88
2022-12-23T15:50:22.840Z,100159.50
2022-12-23T15:52:50.697Z,100207.81
2022-12-23T15:55:25.479Z,100216.59
2022-12-23T15:57:52.789Z,100207.22
2022-12-23T16:00:31.398Z,100201.75
2022-12-23T16:03:01.062Z,100201.97
2022-12-23T16:05:32.716Z,100192.72
2022-12-23T16:08:31.764Z,100194.69
2022-12-23T16:11:07.324Z,100194.69
2022-12-23T16:13:34.036Z,100141.13
2022-12-23T16:16:20.457Z,100193.34
2022-12-23T16:18:47.807Z,100188.81
2022-12-23T16:21:15.256Z,100156.19
2022-12-23T16:23:53.108Z,100179.94
2022-12-23T16:26:20.941Z,100188.22
2022-12-23T16:28:51.187Z,100151.31
2022-12-23T16:31:20.163Z,100172.75
2022-12-23T16:33:59.304Z,100118.00
2022-12-23T16:36:28.775Z,100164.09
2022-12-23T16:39:19.505Z,100163.03
2022-12-23T16:41:45.969Z,100139.66
2022-12-23T16:44:12.794Z,100135.53
2022-12-23T16:46:44.614Z,100150.34
2022-12-23T16:49:20.467Z,100159.13
2022-12-23T16:51:47.338Z,100089.16
2022-12-23T16:54:19.831Z,100141.94
2022-12-23T16:56:46.944Z,100143.53
2022-12-23T16:59:14.276Z,100136.47
2022-12-23T17:01:46.023Z,100120.44
2022-12-23T17:04:12.895Z,100142.19
2022-12-23T17:06:40.828Z,100118.13
2022-12-23T17:09:08.678Z,100074.91
2022-12-23T17:11:41.447Z,100133.69
2022-12-23T17:14:15.792Z,100090.63
2022-12-23T17:16:43.088Z,100129.06
2022-12-23T17:19:09.622Z,100088.91
2022-12-23T17:21:37.734Z,100118.34
2022-12-23T17:24:11.162Z,100131.50
2022-12-23T17:26:37.625Z,100125.66
2022-12-23T17:29:05.552Z,100109.34
2022-12-23T17:31:33.409Z,100139.06
2022-12-23T17:34:01.717Z,100140.00
2022-12-23T17:36:28.401Z,100119.56
2022-12-23T17:38:54.943Z,100091.22
2022-12-23T17:41:32.498Z,100137.69
2022-12-23T17:43:59.362Z,100146.97
2022-12-23T17:46:26.728Z,100144.03
2022-12-23T17:48:53.703Z,100119.44
2022-12-23T17:51:27.414Z,100130.50
2022-12-23T17:53:58.942Z,100093.53
2022-12-23T17:56:28.480Z,100141.84
2022-12-23T17:58:55.040Z,100128.56
2022-12-23T18:01:31.006Z,100095.25
2022-12-23T18:04:15.605Z,100033.66
2022-12-23T18:06:43.176Z,100027.97
2022-12-23T18:09:09.951Z,100038.91
2022-12-23T18:11:41.841Z,100077.59
2022-12-23T18:14:16.359Z,100106.19
2022-12-23T18:16:42.997Z,100150.00
2022-12-23T18:19:26.618Z,100153.63
2022-12-23T18:21:53.111Z,99808.78
2022-12-23T18:24:19.633Z,100117.25
2022-12-23T18:26:51.535Z,100091.59
2022-12-23T18:29:18.693Z,100076.72
2022-12-23T18:31:52.597Z,100004.97
2022-12-23T18:34:20.811Z,100022.50
2022-12-23T18:36:48.540Z,100127.59
2022-12-23T18:39:15.263Z,100152.41
2022-12-23T18:41:41.950Z,100054.25
2022-12-23T18:44:18.447Z,100155.59
2022-12-23T18:46:45.145Z,100096.44
2022-12-23T18:49:11.672Z,100155.47
2022-12-23T18:51:38.229Z,99983.81
2022-12-23T18:54:04.844Z,100083.56
2022-12-23T18:56:31.391Z,100158.41
2022-12-23T18:58:57.887Z,100154.88
2022-12-23T19:01:24.659Z,100131.75
2022-12-23T19:03:51.201Z,100119.94
2022-12-23T19:06:17.857Z,100087.06
2022-12-23T19:08:46.708Z,100089.91
2022-12-23T19:11:20.511Z,100150.50
2022-12-23T19:13:48.863Z,100092.66
2022-12-23T19:16:18.575Z,100050.59
2022-12-23T19:18:46.423Z,100150.25
2022-12-23T19:21:14.291Z,100110.59
2022-12-23T19:23:41.624Z,100112.66
2022-12-23T19:26:12.978Z,100105.34
2022-12-23T19:28:41.960Z,100149.50
2022-12-23T19:31:13.776Z,100047.19
2022-12-23T19:33:45.980Z,100006.56
2022-12-23T19:36:23.205Z,100090.84
2022-12-23T19:38:50.793Z,100149.16
2022-12-23T19:41:18.877Z,100054.13
2022-12-23T19:43:46.920Z,100117.50
2022-12-23T19:46:15.056Z,100122.38
2022-12-23T19:48:42.051Z,100140.97
2022-12-23T19:51:11.741Z,100156.44
2022-12-23T19:53:39.924Z,100130.28
2022-12-23T19:56:53.626Z,100152.06
2022-12-23T19:59:26.491Z,100154.88
2022-12-23T20:01:53.194Z,100149.88
2022-12-23T20:04:19.991Z,100154.88
2022-12-23T20:06:46.538Z,100152.06
2022-12-23T20:09:13.911Z,100132.47
2022-12-23T20:11:43.573Z,100133.06
2022-12-23T20:14:13.233Z,100097.78
2022-12-23T20:16:41.099Z,100072.72
2022-12-23T20:19:08.256Z,100140.63
2022-12-23T20:21:37.414Z,100165.81
2022-12-23T20:24:05.975Z,100095.34
2022-12-23T20:26:33.056Z,100137.72
2022-12-23T20:28:59.777Z,100164.00
2022-12-23T20:31:31.975Z,100115.44
2022-12-23T20:33:58.999Z,100092.44
2022-12-23T20:36:29.070Z,100093.16
2022-12-23T20:38:56.363Z,100105.22
2022-12-23T20:41:25.680Z,100137.72
2022-12-23T20:44:23.899Z,100099.84
2022-12-23T20:46:39.496Z,100115.31
2022-12-23T20:49:06.048Z,100149.88
2022-12-23T20:51:32.603Z,100117.25
2022-12-23T20:54:00.016Z,100167.50
2022-12-23T20:56:27.812Z,100162.16
2022-12-23T20:58:55.290Z,100152.94
2022-12-23T21:01:33.830Z,100157.28
2022-12-23T21:04:02.690Z,100162.88
2022-12-23T21:06:31.089Z,100161.31
2022-12-23T21:08:59.845Z,100166.03
2022-12-23T21:11:32.407Z,100149.03
2022-12-23T21:14:06.113Z,100156.09
2022-12-23T21:16:36.115Z,100163.00
2022-12-23T21:19:04.020Z,100135.84
2022-12-23T21:21:33.015Z,100141.00
2022-12-23T21:24:01.545Z,100162.16
2022-12-23T21:26:30.012Z,100151.47
2022-12-23T21:29:00.555Z,100168.25
2022-12-23T21:31:28.924Z,100168.38
2022-12-23T21:33:56.582Z,100137.19
2022-12-23T21:36:25.765Z,100161.19
2022-12-23T21:38:53.216Z,100159.84
2022-12-23T21:41:22.680Z,100176.91
2022-12-23T21:43:50.186Z,100169.22
2022-12-23T21:46:21.382Z,100172.38
2022-12-23T21:48:49.028Z,100173.00
2022-12-23T21:51:17.932Z,100169.59
2022-12-23T21:53:45.703Z,100122.72
2022-12-23T21:56:14.970Z,100159.50
2022-12-23T21:58:42.076Z,100150.47
2022-12-23T22:01:14.646Z,100171.75
2022-12-23T22:03:41.985Z,100185.28
2022-12-23T22:06:11.716Z,100195.84
2022-12-23T22:08:39.386Z,100187.81
2022-12-23T22:11:12.083Z,100192.84
2022-12-23T22:13:39.243Z,100188.22
2022-12-23T22:16:13.798Z,100183.22
2022-12-23T22:18:41.216Z,100155.81
2022-12-23T22:21:10.220Z,100192.97
2022-12-23T22:23:37.828Z,100139.25
2022-12-23T22:26:05.526Z,100186.97
2022-12-23T22:28:33.432Z,100186.38
2022-12-23T22:31:16.867Z,100192.09
2022-12-23T22:33:43.766Z,100163.25
2022-12-23T22:36:12.066Z,100191.00
2022-12-23T22:38:39.180Z,100154.81
2022-12-23T22:41:06.245Z,100182.22
2022-12-23T22:43:32.894Z,100180.19
2022-12-23T22:46:01.449Z,100202.09
2022-12-23T22:48:30.004Z,100198.31
2022-12-23T22:51:15.114Z,100208.41
2022-12-23T22:53:41.628Z,100194.78
2022-12-23T22:56:08.320Z,100201.34
2022-12-23T22:58:35.041Z,100158.84
2022-12-23T23:01:01.851Z,100198.31
2022-12-23T23:03:29.133Z,100205.00
2022-12-23T23:06:01.423Z,100205.34
2022-12-23T23:08:28.750Z,100208.75
2022-12-23T23:10:57.554Z,100182.34
2022-12-23T23:13:26.685Z,100204.50
2022-12-23T23:15:53.220Z,100192.03
2022-12-23T23:18:19.692Z,100215.47
2022-12-23T23:20:46.556Z,100162.94
2022-12-23T23:23:13.026Z,100209.69
2022-12-23T23:25:39.686Z,100220.16
2022-12-23T23:28:06.217Z,100191.03
2022-12-23T23:30:32.772Z,100212.84
2022-12-23T23:32:59.547Z,100191.16
2022-12-23T23:35:26.418Z,100192.25
2022-12-23T23:37:52.880Z,100211.25
2022-12-23T23:40:19.394Z,100206.13
2022-12-23T23:42:46.043Z,100220.34
2022-12-23T23:45:12.526Z,100224.72
2022-12-23T23:47:38.996Z,100189.28
2022-12-23T23:50:06.430Z,100214.03
2022-12-23T23:52:33.012Z,100192.09
2022-12-23T23:54:59.783Z,100193.91
2022-12-23T23:57:29.084Z,100202.44
2022-12-23T23:59:55.654Z,100215.88
